createdAt,value
2022-09-20T00:02:20.936Z,101466.38
2022-09-20T00:07:22.485Z,101463.66
2022-09-20T00:12:24.127Z,101458.13
2022-09-20T00:17:25.613Z,101463.66
2022-09-20T00:22:27.519Z,101469.66
2022-09-20T00:27:29.035Z,101460.97
2022-09-20T00:32:31.240Z,101479.25
2022-09-20T00:37:33.008Z,101473.56
2022-09-20T00:42:34.496Z,101472.81
2022-09-20T00:47:48.062Z,101474.03
2022-09-20T00:52:51.895Z,101480.03
2022-09-20T00:57:53.478Z,101487.19
2022-09-20T01:02:57.550Z,101492.75
2022-09-20T01:07:59.024Z,101495.53
2022-09-20T01:13:00.742Z,101491.09
2022-09-20T01:18:02.206Z,101490.38
2022-09-20T01:23:33.321Z,101492.84
2022-09-20T01:28:34.818Z,101489.66
2022-09-20T01:33:44.635Z,101483.13
2022-09-20T01:39:02.995Z,101500.41
2022-09-20T01:44:17.719Z,101494.63
2022-09-20T01:49:45.233Z,101503.47
2022-09-20T01:55:24.157Z,101503.47
2022-09-20T02:00:26.771Z,101505.28
2022-09-20T02:05:58.796Z,101501.53
2022-09-20T02:11:07.215Z,101499.66
2022-09-20T02:16:32.613Z,101515.41
2022-09-20T02:21:49.162Z,101520.50
2022-09-20T02:27:18.332Z,101522.31
2022-09-20T02:32:45.301Z,101519.22
2022-09-20T02:38:12.663Z,101518.28
2022-09-20T02:43:41.928Z,101526.03
2022-09-20T02:48:48.349Z,101505.81
2022-09-20T02:54:03.663Z,101510.91
2022-09-20T02:59:27.110Z,101502.31
2022-09-20T03:05:05.622Z,101504.63
2022-09-20T03:10:32.617Z,101507.59
2022-09-20T03:15:58.191Z,101501.91
2022-09-20T03:21:22.728Z,101505.41
2022-09-20T03:26:50.771Z,101508.69
2022-09-20T03:32:29.864Z,101521.69
2022-09-20T03:37:46.346Z,101507.72
2022-09-20T03:42:49.436Z,101511.13
2022-09-20T03:48:06.043Z,101513.47
2022-09-20T03:53:26.110Z,101517.44
2022-09-20T03:58:39.778Z,101524.16
2022-09-20T04:04:04.312Z,101523.69
2022-09-20T04:09:43.200Z,101531.25
2022-09-20T04:14:49.204Z,101520.66
2022-09-20T04:20:03.791Z,101529.63
2022-09-20T04:25:43.741Z,101531.28
2022-09-20T04:30:46.573Z,101528.97
2022-09-20T04:36:28.968Z,101538.91
2022-09-20T04:41:51.786Z,101535.63
2022-09-20T04:47:31.751Z,101534.13
2022-09-20T04:52:51.423Z,101544.66
2022-09-20T04:58:10.885Z,101541.50
2022-09-20T05:03:40.234Z,101534.75
2022-09-20T05:08:53.259Z,101542.19
2022-09-20T05:13:57.181Z,101548.91
2022-09-20T05:19:26.425Z,101552.84
2022-09-20T05:25:07.032Z,101558.03
2022-09-20T05:30:19.348Z,101555.06
2022-09-20T05:35:30.315Z,101560.59
2022-09-20T05:40:35.775Z,101557.09
2022-09-20T05:46:02.742Z,101565.19
2022-09-20T05:51:09.847Z,101576.59
2022-09-20T05:56:23.527Z,101587.63
2022-09-20T06:01:32.741Z,101577.75
2022-09-20T06:06:38.495Z,101581.00
2022-09-20T06:12:03.195Z,101583.66
2022-09-20T06:17:46.788Z,101591.31
2022-09-20T06:22:50.303Z,101598.13
2022-09-20T06:27:54.109Z,101597.09
2022-09-20T06:33:00.063Z,101589.50
2022-09-20T06:38:41.390Z,101597.94
2022-09-20T06:43:43.046Z,101607.19
2022-09-20T06:48:44.611Z,101605.84
2022-09-20T06:53:46.082Z,101598.97
2022-09-20T06:58:47.561Z,101612.78
2022-09-20T07:03:49.040Z,101628.56
2022-09-20T07:08:50.523Z,101625.28
2022-09-20T07:13:53.788Z,101630.06
2022-09-20T07:18:56.707Z,101640.53
2022-09-20T07:23:58.298Z,101651.69
2022-09-20T07:28:59.816Z,101653.69
2022-09-20T07:34:01.283Z,101663.06
2022-09-20T07:39:02.765Z,101646.72
2022-09-20T07:44:24.299Z,101652.72
2022-09-20T07:49:26.552Z,101647.09
2022-09-20T07:54:28.190Z,101647.66
2022-09-20T07:59:29.665Z,101650.91
2022-09-20T08:04:31.152Z,101651.47
2022-09-20T08:09:32.632Z,101663.25
2022-09-20T08:14:34.164Z,101659.03
2022-09-20T08:19:36.420Z,101673.53
2022-09-20T08:24:38.177Z,101672.75
2022-09-20T08:29:40.487Z,101679.88
2022-09-20T08:34:41.958Z,101683.91
2022-09-20T08:39:59.367Z,101680.28
2022-09-20T08:45:02.807Z,101691.22
2022-09-20T08:50:17.520Z,101689.09
2022-09-20T08:55:27.998Z,101693.34
2022-09-20T09:00:32.415Z,101690.47
2022-09-20T09:05:35.596Z,101699.13
2022-09-20T09:10:45.377Z,101698.97
2022-09-20T09:15:47.548Z,101701.91
2022-09-20T09:20:49.020Z,101709.00
2022-09-20T09:25:50.500Z,101700.81
2022-09-20T09:30:52.002Z,101704.59
2022-09-20T09:35:56.336Z,101710.53
2022-09-20T09:40:59.396Z,101719.66
2022-09-20T09:46:21.540Z,101718.25
2022-09-20T09:51:23.537Z,101720.31
2022-09-20T09:56:57.285Z,101720.13
2022-09-20T10:02:18.595Z,101710.19
2022-09-20T10:07:38.062Z,101714.94
2022-09-20T10:12:58.064Z,101726.16
2022-09-20T10:18:31.310Z,101724.97
2022-09-20T10:24:03.619Z,101721.53
2022-09-20T10:29:17.705Z,101732.44
2022-09-20T10:34:37.119Z,101727.81
2022-09-20T10:39:38.799Z,101730.09
2022-09-20T10:44:50.023Z,101732.59
2022-09-20T10:50:14.557Z,101737.84
2022-09-20T10:55:34.303Z,101729.88
2022-09-20T11:01:00.768Z,101742.75
2022-09-20T11:06:29.667Z,101743.34
2022-09-20T11:11:34.707Z,101741.16
2022-09-20T11:16:57.764Z,101746.53
2022-09-20T11:22:11.725Z,101764.72
2022-09-20T11:27:25.594Z,101753.84
2022-09-20T11:32:32.943Z,101752.13
2022-09-20T11:37:36.691Z,101754.22
2022-09-20T11:42:38.199Z,101756.25
2022-09-20T11:47:54.933Z,101756.94
2022-09-20T11:53:21.881Z,101763.38
2022-09-20T11:58:23.356Z,101767.97
2022-09-20T12:03:33.584Z,101773.94
2022-09-20T12:08:39.661Z,101775.66
2022-09-20T12:13:55.758Z,101777.56
2022-09-20T12:19:01.203Z,101774.41
2022-09-20T12:24:17.180Z,101776.13
2022-09-20T12:29:24.383Z,101776.94
2022-09-20T12:34:26.048Z,101778.75
2022-09-20T12:39:37.531Z,101784.88
2022-09-20T12:44:50.873Z,101786.06
2022-09-20T12:50:12.703Z,101785.31
2022-09-20T12:55:32.298Z,101787.53
2022-09-20T13:00:42.698Z,101790.13
2022-09-20T13:05:46.065Z,101790.41
2022-09-20T13:11:17.290Z,101794.19
2022-09-20T13:16:37.196Z,101793.69
2022-09-20T13:21:40.759Z,101797.03
2022-09-20T13:26:44.775Z,101805.31
2022-09-20T13:31:46.344Z,101803.53
2022-09-20T13:36:49.579Z,101803.88
2022-09-20T13:41:52.993Z,101808.97
2022-09-20T13:46:54.315Z,101804.00
2022-09-20T13:51:55.819Z,101809.44
2022-09-20T13:57:00.081Z,101814.34
2022-09-20T14:02:01.576Z,101807.19
2022-09-20T14:07:05.731Z,101802.38
2022-09-20T14:12:07.349Z,101809.25
2022-09-20T14:17:09.570Z,101813.81
2022-09-20T14:22:18.975Z,101821.25
2022-09-20T14:27:21.369Z,101814.88
2022-09-20T14:32:31.132Z,101811.94
2022-09-20T14:37:33.461Z,101807.59
2022-09-20T14:42:56.075Z,101813.19
2022-09-20T14:48:00.782Z,101819.75
2022-09-20T14:53:05.047Z,101819.19
2022-09-20T14:58:11.264Z,101814.50
2022-09-20T15:03:12.822Z,101818.31
2022-09-20T15:08:15.410Z,101827.94
2022-09-20T15:13:16.935Z,101819.00
2022-09-20T15:18:21.617Z,101829.69
2022-09-20T15:23:23.103Z,101831.97
2022-09-20T15:28:26.543Z,101840.13
2022-09-20T15:33:29.755Z,101835.00
2022-09-20T15:38:31.249Z,101838.91
2022-09-20T15:43:32.738Z,101835.38
2022-09-20T15:48:34.207Z,101840.50
2022-09-20T15:53:36.907Z,101832.84
2022-09-20T15:58:38.402Z,101841.00
2022-09-20T16:03:39.931Z,101837.50
2022-09-20T16:08:42.095Z,101844.91
2022-09-20T16:13:43.477Z,101844.38
2022-09-20T16:19:03.560Z,101847.00
2022-09-20T16:24:05.658Z,101853.47
2022-09-20T16:29:11.686Z,101866.22
2022-09-20T16:34:23.850Z,101873.25
2022-09-20T16:39:28.944Z,101872.88
2022-09-20T16:44:34.662Z,101869.78
2022-09-20T16:49:36.727Z,101879.31
2022-09-20T16:54:38.235Z,101883.75
2022-09-20T16:59:39.742Z,101883.56
2022-09-20T17:04:43.602Z,101893.41
2022-09-20T17:09:45.183Z,101893.22
2022-09-20T17:14:46.667Z,101898.97
2022-09-20T17:19:48.161Z,101903.47
2022-09-20T17:24:49.915Z,101903.25
2022-09-20T17:29:51.448Z,101911.41
2022-09-20T17:34:52.981Z,101911.63
2022-09-20T17:39:54.632Z,101918.66
2022-09-20T17:44:56.103Z,101922.88
2022-09-20T17:49:57.656Z,101926.59
2022-09-20T17:54:59.135Z,101926.19
2022-09-20T18:00:00.726Z,101934.72
2022-09-20T18:05:02.236Z,101941.97
2022-09-20T18:10:03.948Z,101945.16
2022-09-20T18:15:06.153Z,101950.91
2022-09-20T18:20:08.081Z,101953.03
2022-09-20T18:25:09.764Z,101957.59
2022-09-20T18:30:11.537Z,101970.34
2022-09-20T18:35:13.075Z,101976.38
2022-09-20T18:40:15.060Z,101979.25
2022-09-20T18:45:17.495Z,101974.44
2022-09-20T18:50:18.943Z,101984.59
2022-09-20T18:55:22.297Z,101980.78
2022-09-20T19:00:23.900Z,101980.44
2022-09-20T19:05:29.339Z,101988.03
2022-09-20T19:10:39.546Z,101998.13
2022-09-20T19:16:13.321Z,101996.59
2022-09-20T19:21:45.817Z,102013.47
2022-09-20T19:26:47.533Z,102005.59
2022-09-20T19:31:50.199Z,102013.16
2022-09-20T19:36:59.891Z,102011.41
2022-09-20T19:42:14.712Z,102022.19
2022-09-20T19:47:47.186Z,102026.84
2022-09-20T19:52:49.515Z,102026.34
2022-09-20T19:57:51.048Z,102036.00
2022-09-20T20:02:54.015Z,102041.44
2022-09-20T20:08:33.008Z,102046.22
2022-09-20T20:13:59.233Z,102044.31
2022-09-20T20:19:40.016Z,102046.38
2022-09-20T20:24:47.753Z,102050.66
2022-09-20T20:29:49.444Z,102045.84
2022-09-20T20:34:50.941Z,102050.53
2022-09-20T20:39:52.794Z,102050.34
2022-09-20T20:44:54.276Z,102058.22
2022-09-20T20:49:55.759Z,102054.50
2022-09-20T20:54:59.941Z,102061.44
2022-09-20T21:00:01.697Z,102066.34
2022-09-20T21:05:03.210Z,102066.28
2022-09-20T21:10:05.078Z,102067.47
2022-09-20T21:15:07.814Z,102079.81
2022-09-20T21:20:10.047Z,102083.41
2022-09-20T21:25:11.520Z,102076.06
2022-09-20T21:30:13.218Z,102080.59
2022-09-20T21:35:14.971Z,102080.28
2022-09-20T21:40:16.467Z,102091.75
2022-09-20T21:45:20.894Z,102093.25
2022-09-20T21:50:22.741Z,102096.78
2022-09-20T21:55:24.212Z,102101.28
2022-09-20T22:00:27.152Z,102104.66
2022-09-20T22:05:28.617Z,102107.53
2022-09-20T22:10:30.130Z,102100.78
2022-09-20T22:15:31.796Z,102104.94
2022-09-20T22:20:33.314Z,102117.72
2022-09-20T22:25:34.784Z,102105.34
2022-09-20T22:30:36.351Z,102105.75
2022-09-20T22:35:43.278Z,102112.88
2022-09-20T22:40:57.534Z,102111.28
2022-09-20T22:46:21.207Z,102112.66
2022-09-20T22:51:23.460Z,102110.78
2022-09-20T22:56:31.743Z,102103.84
2022-09-20T23:01:37.654Z,102107.19
2022-09-20T23:06:40.664Z,102119.09
2022-09-20T23:11:42.712Z,102106.72
2022-09-20T23:16:44.689Z,102112.66
2022-09-20T23:21:46.292Z,102110.75
2022-09-20T23:26:47.820Z,102125.94
2022-09-20T23:31:49.941Z,102123.75
2022-09-20T23:36:51.407Z,102125.72
2022-09-20T23:41:52.880Z,102130.19
2022-09-20T23:46:54.419Z,102139.53
2022-09-20T23:51:55.889Z,102129.00
2022-09-20T23:56:57.363Z,102126.28
